St. JULIÀ DE VILATORTA (Osona)





Hora UTC 06:15
Temperatura 14.6 ºC
Humedad 84.3 %
Presión 1012.0 hPa
Pluja 0.0 mm
Velocidad viento 2.5 km/h
Dirección viento NNW
Radiación solar 100.4 W/m²

Datos diarios 2024-05-30



Hora UTC (invierno +1h; verano +2h)
Temperatura (ºC) Humedad (%) Presión (hPa) Velocidad viento (km/h) Precipitación (mm) Radiación solar (W/m²)
Hora UTC Aire Humedad Presión Vel. Dir. Vel. Max Dir. Intent. máx 5 min. Rad. Sol.
00:05 16.3 71.7 1014.1 1.7 E 1.7 E 0.0 0.0
00:10 16.1 73.1 1014.0 2.5 ESE 4.4 E 0.0 0.1
00:15 16.0 74.3 1014.0 1.5 SE 4.5 ESE 0.0 0.0
00:20 15.9 74.4 1014.0 2.5 ESE 5.2 ESE 0.0 0.3
00:25 15.8 75.2 1014.0 2.2 ESE 4.5 ESE 0.0 0.4
00:30 15.7 76.3 1014.0 1.4 SE 3.2 E 0.0 0.5
00:35 15.6 77.5 1014.0 2.0 SE 4.4 ESE 0.0 0.4
00:40 15.5 78.0 1013.9 1.8 SSE 2.8 SSE 0.0 0.1
00:45 15.4 78.2 1013.9 2.1 ESE 3.9 ESE 0.0 0.3
00:50 15.2 79.2 1013.9 0.9 SE 2.8 ESE 0.0 0.3
00:55 15.0 80.1 1013.8 2.7 SE 5.3 ESE 0.0 0.5
01:00 14.9 80.3 1013.8 1.7 ESE 4.0 E 0.0 0.1
01:05 14.8 80.9 1013.7 2.7 ESE 4.0 ESE 0.0 0.6
01:10 14.7 81.0 1013.7 1.9 SE 3.9 ESE 0.0 0.3
01:15 14.6 81.0 1013.6 2.1 SE 3.8 ESE 0.0 0.5
01:20 14.5 81.0 1013.6 2.7 ESE 4.3 E 0.0 0.3
01:25 14.3 81.9 1013.5 2.1 SE 3.6 ESE 0.0 0.3
01:30 14.3 82.2 1013.5 2.2 SE 4.4 SE 0.0 0.2
01:35 14.2 82.2 1013.4 2.5 ESE 3.9 ESE 0.0 0.2
01:40 14.1 82.5 1013.4 2.4 ESE 4.4 SE 0.0 0.3
01:45 14.0 83.0 1013.3 2.5 ESE 4.2 E 0.0 0.3
01:50 13.9 83.2 1013.2 2.7 ESE 4.6 ESE 0.0 0.4
01:55 13.9 83.3 1013.2 1.7 ESE 2.7 ESE 0.0 0.6
02:00 13.9 83.5 1013.1 2.1 ESE 3.4 E 0.0 0.4
02:05 13.8 83.5 1013.1 1.8 ESE 3.5 ESE 0.0 0.4
02:10 13.7 83.7 1013.0 1.7 ESE 3.7 E 0.0 0.3
02:15 13.6 84.2 1013.0 3.0 E 4.8 E 0.0 0.4
02:20 13.5 84.8 1013.0 2.4 SE 3.8 SE 0.0 0.3
02:25 13.5 85.1 1013.0 1.8 SE 2.8 SE 0.0 0.1
02:30 13.4 85.0 1013.0 3.3 E 4.2 E 0.0 0.2
02:35 13.3 85.5 1012.9 1.9 SE 3.7 E 0.0 0.4
02:40 13.2 86.0 1012.9 2.1 ESE 3.1 ESE 0.0 0.5
02:45 13.2 86.6 1012.8 1.5 SE 2.6 ESE 0.0 0.2
02:50 13.1 86.5 1012.8 2.6 E 3.7 ESE 0.0 0.3
02:55 13.0 86.9 1012.8 2.3 SE 3.5 SE 0.0 0.3
03:00 13.0 87.3 1012.7 2.9 ESE 4.4 ESE 0.0 0.2
03:05 13.0 87.2 1012.7 2.7 ESE 4.3 ESE 0.0 0.3
03:10 13.0 87.3 1012.6 2.6 SE 3.9 SE 0.0 0.2
03:15 13.0 87.1 1012.5 3.6 ESE 5.5 E 0.0 0.2
03:20 13.0 87.2 1012.5 3.0 ESE 5.8 E 0.0 0.2
03:25 13.0 87.3 1012.4 2.3 SE 5.1 ESE 0.0 0.2
03:30 13.0 87.1 1012.3 2.1 ESE 3.5 ESE 0.0 0.2
03:35 12.9 87.3 1012.3 2.0 ESE 3.9 ESE 0.0 0.3
03:40 12.8 87.6 1012.2 2.9 ESE 4.4 ESE 0.0 0.4
03:45 12.7 87.8 1012.1 2.1 ESE 5.0 ESE 0.0 0.3
03:50 12.6 88.5 1012.1 2.1 ESE 3.4 E 0.0 0.5
03:55 12.5 89.1 1012.0 1.5 ESE 3.3 ESE 0.0 0.7
04:00 12.4 89.3 1012.0 0.8 N 1.8 NE 0.0 0.5
04:05 12.3 89.5 1012.0 1.4 ENE 2.3 ENE 0.0 0.9
04:10 12.3 90.3 1012.0 2.0 SE 3.2 SE 0.0 1.3
04:15 12.3 90.4 1012.0 1.2 SE 2.5 SE 0.0 2.2
04:20 12.2 90.4 1012.1 1.2 S 3.3 SSW 0.0 4.0
04:25 12.0 90.3 1012.2 3.3 S 4.0 S 0.0 5.3
04:30 11.9 90.8 1012.2 2.6 SSE 3.7 SE 0.0 9.3
04:35 12.0 91.4 1012.1 3.3 SSE 5.0 SSE 0.0 13.8
04:40 12.1 91.7 1012.1 4.4 SE 6.4 SE 0.0 20.1
04:45 12.4 91.7 1012.1 2.7 SE 5.3 SE 0.0 23.3
04:50 12.5 91.2 1012.2 2.0 SE 4.5 SE 0.0 24.7
04:55 12.6 90.9 1012.2 2.2 ESE 3.4 SE 0.0 25.0
05:00 12.8 90.7 1012.1 2.8 ESE 4.8 SE 0.0 28.7
05:05 12.8 90.5 1012.1 2.6 SSE 5.1 S 0.0 32.8
05:10 12.9 90.3 1012.0 2.2 SSE 3.9 ESE 0.0 40.4
05:15 13.0 90.0 1012.0 1.2 S 3.4 SSE 0.0 50.5
05:20 13.1 89.5 1012.0 1.1 NE 2.3 ENE 0.0 55.6
05:25 13.3 89.0 1012.0 1.7 ENE 3.0 E 0.0 62.1
05:30 13.4 88.4 1012.0 1.7 ESE 2.8 ESE 0.0 70.8
05:35 13.6 88.1 1011.9 1.5 SE 3.5 SSW 0.0 73.6
05:40 13.7 87.3 1012.0 2.1 S 3.5 S 0.0 87.9
05:45 13.7 86.9 1012.0 0.7 E 1.6 SSE 0.0 94.6
05:50 13.9 86.7 1012.0 1.1 W 2.4 S 0.0 90.5
05:55 14.1 85.8 1012.0 1.7 SSW 2.8 SSW 0.0 88.8
06:00 14.3 85.0 1012.0 1.0 SSW 1.8 S 0.0 94.5
06:05 14.5 84.6 1012.0 1.3 WSW 2.3 W 0.0 101.3
06:10 14.6 84.2 1012.0 1.4 NW 2.8 NNW 0.0 100.4
06:15 14.6 84.3 1012.0 2.5 NNW 4.3 NNW 0.0 100.4
Máxima 16.3 91.7 1014.1 4.4 SE 6.4 SE 0.0 101.3
Mínima 11.8 71.7 1011.9
Total 0.0